Terminal Aerodrome Forecast
Issued by NWS

Home | Current Version | Previous Version | Text Only | Print | Product List | Glossary On
Versions: 1 2 3 4 5 6 7 8 9 10 11 12 13 14
000
FTUS43 KTOP 241147
TAFFOE
TAF
KFOE 241147Z 2412/2512 20011G19KT P6SM SCT250 WS012/23042KT
     FM241500 23016G24KT P6SM FEW250
     FM242200 31009KT P6SM SCT150=

USA.gov is the U.S. government's official web portal to all federal, state and local government web resources and services.